< Typhoon 201421 2014 Season Typhoon 201423 >
Typhoon 201422 (HAGUPIT)
General InformationTrack Information on Google MapsDetailed Wind InformationForecast History on Google MapsAccess Analytics MapList of All Images || NewsDisaster Info.WeblogTrackbackTyphoon FrontTwiphoonTyphoon Now!Typhoon ImaginationDisaster Info. XMLResourceGoogle EarthGE AnimationAtom FeedGeoJSON
Detalied Best Track (Time Zone = UTC)
Year Month Day Hour Lat. Long. Pressure (hPa) Wind (kt) Class Image Chart
2014 11 30 12 2.6 156.0 1006 0 2 Image Chart
2014 11 30 18 3.6 154.8 1004 0 2 Image Chart
2014 12 1 00 4.1 153.4 1000 35 3 Image Chart
2014 12 1 06 4.9 152.2 998 35 3 Image Chart
2014 12 1 12 5.5 150.7 994 40 3 Image Chart
2014 12 1 18 5.9 148.9 990 45 3 Image Chart
2014 12 2 00 5.9 146.9 985 50 4 Image Chart
2014 12 2 06 6.1 145.1 980 55 4 Image Chart
2014 12 2 12 6.2 143.5 975 60 4 Image Chart
2014 12 2 18 6.6 142.1 965 70 5 Image Chart
2014 12 3 00 7.5 140.5 955 75 5 Image Chart
2014 12 3 06 8.2 138.6 950 80 5 Image Chart
2014 12 3 12 8.7 136.8 945 85 5 Image Chart
2014 12 3 18 9.2 135.3 935 95 5 Image Chart
2014 12 4 00 9.8 133.8 915 105 5 Image Chart
2014 12 4 06 10.4 132.4 905 115 5 Image Chart
2014 12 4 12 11.0 131.3 905 115 5 Image Chart
2014 12 4 18 11.4 130.4 905 115 5 Image Chart
2014 12 5 00 11.6 129.7 910 110 5 Image Chart
2014 12 5 06 11.9 129.0 910 110 5 Image Chart
2014 12 5 12 12.0 128.5 910 110 5 Image Chart
2014 12 5 18 12.0 128.0 925 100 5 Image Chart
2014 12 6 00 12.0 127.3 935 95 5 Image Chart
2014 12 6 06 12.1 126.6 935 95 5 Image Chart
2014 12 6 12 12.0 125.9 945 90 5 Image Chart
2014 12 6 18 11.8 125.3 945 90 5 Image Chart
2014 12 7 00 11.9 124.6 955 85 5 Image Chart
2014 12 7 06 12.2 124.1 955 85 5 Image Chart
2014 12 7 12 12.5 123.6 965 75 5 Image Chart
2014 12 7 18 12.8 123.1 975 65 5 Image Chart
2014 12 8 00 13.2 122.6 980 60 4 Image Chart
2014 12 8 06 13.5 122.0 985 55 4 Image Chart
2014 12 8 12 13.7 121.2 990 45 3 Image Chart
2014 12 8 18 13.7 121.0 990 40 3 Image Chart
2014 12 9 00 13.7 120.6 994 35 3 Image Chart
2014 12 9 06 13.6 119.7 994 35 3 Image Chart
2014 12 9 12 13.6 118.9 990 40 3 Image Chart
2014 12 9 18 13.7 117.9 990 40 3 Image Chart
2014 12 10 00 13.7 116.9 990 40 3 Image Chart
2014 12 10 06 13.8 116.0 990 40 3 Image Chart
2014 12 10 12 13.8 115.3 990 40 3 Image Chart
2014 12 10 18 13.8 114.3 990 40 3 Image Chart
2014 12 11 00 13.6 113.4 996 35 3 Image Chart
2014 12 11 06 13.1 112.5 1002 0 2 Image Chart
2014 12 11 12 12.4 111.6 1004 0 2 Image Chart
2014 12 11 18 11.6 110.8 1006 0 2 Image Chart
2014 12 12 00 10.3 110.0 1008 0 2 Image Chart
2014 12 12 06 9.2 109.2 1008 0 2 Image Chart
Japan Meteorological Agency Best Track Data | Correction Date : 2015-01-09
< Typhoon 201421 2014 Season Typhoon 201423 >

Help